Time;durP1;ratioP1;P1;durP2;ratioP2;P2;SDS_P1;SDS_P2;PMS_P1;PMS_P2;Temp;Humidity;BMP_temperature;BMP_pressure;BME280_temperature;BME280_humidity;BME280_pressure;Samples;Min_cycle;Max_cycle;Signal;HPM_P1;HPM_P2
2023/01/06 00:01:33;;;;;;;3.50;3.10;;;11.80;99.90;;;10.95;100.00;101154.03;4954818;28;20047;-70
2023/01/06 00:04:01;;;;;;;5.77;3.37;;;11.80;99.90;;;10.91;100.00;101150.56;4952888;28;20046;-68
2023/01/06 00:06:30;;;;;;;3.63;2.80;;;11.90;99.90;;;10.91;100.00;101139.16;4969063;28;20385;-70
2023/01/06 00:09:02;;;;;;;4.20;3.25;;;11.70;99.90;;;10.91;100.00;101147.91;4968575;28;20049;-69
2023/01/06 00:11:30;;;;;;;4.55;3.45;;;11.80;99.90;;;10.91;100.00;101141.78;4969500;28;20046;-69
2023/01/06 00:13:58;;;;;;;4.38;2.97;;;11.80;99.90;;;10.89;100.00;101143.59;4965257;28;20047;-69
2023/01/06 00:16:25;;;;;;;4.93;3.00;;;12.40;99.90;;;10.87;100.00;101142.75;4949370;29;20134;-69
2023/01/06 00:18:58;;;;;;;4.57;3.63;;;11.80;99.90;;;10.92;100.00;101147.03;4949468;29;20657;-69
2023/01/06 00:21:25;;;;;;;5.32;3.25;;;11.70;99.90;;;10.92;100.00;101144.38;4949505;28;20071;-69
2023/01/06 00:23:53;;;;;;;3.58;2.85;;;11.80;99.90;;;10.89;100.00;101136.53;4949344;29;20718;-70
2023/01/06 00:26:21;;;;;;;4.78;3.10;;;11.70;99.90;;;10.82;100.00;101140.16;4949316;28;20590;-69
2023/01/06 00:28:53;;;;;;;5.28;2.78;;;11.70;99.90;;;10.80;100.00;101134.03;4965193;28;20047;-70
2023/01/06 00:31:21;;;;;;;3.95;2.53;;;11.70;99.90;;;10.82;100.00;101137.53;4967459;28;20047;-70
2023/01/06 00:33:48;;;;;;;4.50;2.92;;;11.80;99.90;;;10.88;100.00;101124.28;4968412;28;20058;-69
2023/01/06 00:36:15;;;;;;;3.33;2.60;;;11.70;99.90;;;10.88;100.00;101123.41;4952637;28;20534;-69
2023/01/06 00:38:43;;;;;;;4.32;2.85;;;11.70;99.90;;;10.90;100.00;101117.22;4952621;28;20050;-69
2023/01/06 00:43:59;;;;;;;4.18;2.58;;;11.70;99.90;;;10.98;100.00;101124.16;4983622;28;20054;-69
2023/01/06 00:46:30;;;;;;;4.30;2.75;;;11.80;99.90;;;10.95;100.00;101111.03;4971812;28;20491;-69
2023/01/06 00:48:59;;;;;;;5.70;3.75;;;11.80;99.90;;;11.00;100.00;101112.69;4988176;28;20038;-70
2023/01/06 00:51:37;;;;;;;4.47;2.80;;;11.80;99.90;;;11.00;100.00;101117.09;4973037;28;20395;-69
2023/01/06 00:54:11;;;;;;;5.43;3.13;;;11.90;99.90;;;11.02;100.00;101121.47;4971649;28;20078;-69
2023/01/06 00:56:41;;;;;;;4.07;2.20;;;12.30;99.90;;;11.01;100.00;101122.38;4988805;28;20049;-69
2023/01/06 00:59:09;;;;;;;4.82;2.83;;;11.90;99.90;;;11.02;100.00;101120.59;4971549;28;20046;-69
2023/01/06 01:01:37;;;;;;;4.75;2.92;;;11.90;99.90;;;11.02;100.00;101121.47;4936774;28;20050;-69
2023/01/06 01:04:06;;;;;;;5.35;2.97;;;11.90;99.90;;;10.97;100.00;101114.53;4952714;28;20082;-69
2023/01/06 01:06:35;;;;;;;5.05;2.92;;;11.90;99.90;;;10.99;100.00;101129.38;4985280;28;20035;-69
2023/01/06 01:09:03;;;;;;;3.60;2.60;;;11.80;99.90;;;10.92;100.00;101115.44;4952273;28;20038;-69
2023/01/06 01:14:19;;;;;;;3.55;2.58;;;11.80;99.90;;;10.97;100.00;101120.63;4968096;28;20066;-69
2023/01/06 01:16:47;;;;;;;4.97;2.47;;;11.80;99.90;;;10.99;100.00;101115.38;4952384;28;20408;-70
2023/01/06 01:19:14;;;;;;;4.72;2.65;;;11.80;99.90;;;10.96;100.00;101110.16;4967967;28;20050;-70
2023/01/06 01:21:41;;;;;;;4.65;2.63;;;11.80;99.90;;;10.98;100.00;101118.88;4954969;28;20053;-70
2023/01/06 01:24:09;;;;;;;5.55;2.30;;;11.80;99.90;;;10.97;100.00;101104.84;4955506;28;20494;-69
2023/01/06 01:26:37;;;;;;;2.95;2.35;;;11.90;99.90;;;11.05;100.00;101112.63;4955392;28;20054;-69
2023/01/06 01:29:04;;;;;;;6.32;2.45;;;11.90;99.90;;;11.03;100.00;101103.88;4973002;28;20531;-69
2023/01/06 01:31:35;;;;;;;4.18;2.33;;;11.80;99.90;;;11.08;100.00;101109.94;4955655;28;20054;-69
2023/01/06 01:34:02;;;;;;;4.53;2.83;;;11.90;99.90;;;11.11;100.00;101098.50;4968029;28;20081;-69
2023/01/06 01:36:29;;;;;;;5.43;2.70;;;12.10;99.90;;;11.07;100.00;101106.47;4952444;29;20460;-69
2023/01/06 01:38:57;;;;;;;4.80;2.75;;;11.90;99.90;;;11.05;100.00;101100.34;4968150;28;20118;-69
2023/01/06 01:41:27;;;;;;;3.40;2.70;;;11.90;99.90;;;11.05;100.00;101107.38;4952192;29;20495;-69
2023/01/06 01:44:01;;;;;;;4.13;2.50;;;11.90;99.90;;;11.02;100.00;101107.41;4976396;28;20051;-69
2023/01/06 01:46:39;;;;;;;3.58;2.60;;;11.90;99.90;;;10.98;100.00;101111.00;4975030;28;20050;-69
2023/01/06 01:49:22;;;;;;;4.97;2.37;;;11.90;99.90;;;11.06;100.00;101106.47;4975349;28;20043;-69
2023/01/06 01:51:52;;;;;;;5.18;2.70;;;12.10;99.90;;;11.04;100.00;101105.63;4990922;28;20046;-69
2023/01/06 01:54:29;;;;;;;5.68;2.70;;;11.90;99.90;;;11.06;100.00;101098.56;4974697;28;20466;-69
2023/01/06 01:57:14;;;;;;;6.63;2.70;;;12.60;99.90;;;11.05;100.00;101100.34;4994723;28;20096;-69
2023/01/06 01:59:43;;;;;;;4.28;2.28;;;11.90;99.90;;;11.07;100.00;101101.19;4973489;28;20524;-70
2023/01/06 02:02:13;;;;;;;3.50;2.40;;;11.90;99.90;;;11.08;100.00;101096.78;4971742;28;20047;-70
2023/01/06 02:04:43;;;;;;;;;;;11.90;99.90;;;11.12;100.00;101102.88;4955660;28;20054;-68
2023/01/06 02:07:11;;;;;;;4.20;2.63;;;11.90;99.90;;;11.08;100.00;101096.78;4955530;28;20583;-69
2023/01/06 02:09:51;;;;;;;4.97;2.78;;;11.90;99.90;;;11.09;100.00;101098.56;4955161;28;20059;-70
2023/01/06 02:12:19;;;;;;;3.53;2.50;;;11.90;99.90;;;11.09;100.00;101101.19;4971641;28;20058;-69
2023/01/06 02:14:46;;;;;;;4.32;2.72;;;11.90;99.90;;;11.11;100.00;101098.50;4970360;28;20058;-70
2023/01/06 02:17:38;;;;;;;4.20;2.80;;;12.10;99.90;;;11.10;100.00;101096.78;4970541;28;20070;-69
2023/01/06 02:20:14;;;;;;;3.85;2.58;;;12.00;99.90;;;11.10;100.00;101104.69;4970732;28;20047;-70
2023/01/06 02:22:59;;;;;;;5.05;3.00;;;11.90;99.90;;;11.12;100.00;101106.41;4970297;28;20047;-69
2023/01/06 02:25:56;;;;;;;4.22;2.70;;;11.90;99.90;;;11.14;100.00;101101.09;4970605;28;20051;-70
2023/01/06 02:29:19;;;;;;;5.30;3.25;;;12.00;99.90;;;11.10;100.00;101104.69;4970618;28;20653;-69
2023/01/06 02:32:14;;;;;;;3.42;3.00;;;11.90;99.90;;;11.04;100.00;101105.63;4910530;29;20127;-69
2023/01/06 02:35:22;;;;;;;5.38;2.80;;;12.00;99.90;;;11.02;100.00;101107.41;4911611;29;20048;-69
2023/01/06 02:38:33;;;;;;;4.85;2.75;;;11.90;99.90;;;11.05;100.00;101104.72;4896392;29;20143;-69
2023/01/06 02:41:31;;;;;;;3.92;2.70;;;11.90;99.90;;;11.07;100.00;101106.47;4911621;29;20040;-69
2023/01/06 02:44:28;;;;;;;4.07;3.00;;;11.90;99.90;;;11.01;100.00;101101.28;4936497;29;20047;-69
2023/01/06 02:47:44;;;;;;;3.72;2.60;;;11.90;99.90;;;10.99;100.00;101100.41;4919059;29;20051;-69
2023/01/06 02:50:45;;;;;;;4.35;2.58;;;11.80;99.90;;;10.97;100.00;101104.00;4905502;29;20638;-69
2023/01/06 02:53:39;;;;;;;4.53;2.80;;;12.30;99.90;;;10.88;100.00;101105.00;4933390;29;20051;-69
2023/01/06 02:56:08;;;;;;;3.88;2.92;;;11.80;99.90;;;10.88;100.00;101095.31;4933494;29;20092;-69
2023/01/06 02:58:57;;;;;;;3.90;2.80;;;11.70;99.90;;;10.89;100.00;101097.03;4918480;29;20043;-70
2023/01/06 03:01:39;;;;;;;4.55;2.80;;;11.70;99.90;;;10.80;100.00;101096.31;4917667;29;20052;-69
2023/01/06 03:04:14;;;;;;;3.90;2.33;;;11.70;99.90;;;10.82;100.00;101102.41;4954923;28;20105;-69
2023/01/06 03:06:47;;;;;;;3.78;2.70;;;11.90;99.90;;;10.77;100.00;101098.09;4986433;28;20698;-70
2023/01/06 03:09:20;;;;;;;4.05;2.72;;;11.70;99.90;;;10.77;100.00;101103.34;4954694;28;20474;-69
2023/01/06 03:11:50;;;;;;;5.20;2.95;;;11.90;99.90;;;10.75;100.00;101096.34;4938477;28;20434;-70
2023/01/06 03:14:29;;;;;;;5.93;3.10;;;11.80;99.90;;;10.73;100.00;101101.66;4950721;28;20490;-69
2023/01/06 03:16:57;;;;;;;5.50;3.17;;;11.70;99.90;;;10.68;100.00;101095.56;4950625;29;20058;-69
2023/01/06 03:19:25;;;;;;;4.10;2.88;;;11.50;99.90;;;10.62;100.00;101091.28;4950604;29;20047;-69
2023/01/06 03:21:53;;;;;;;4.20;2.97;;;11.60;99.90;;;10.56;100.00;101087.84;4950214;28;20058;-70
2023/01/06 03:24:22;;;;;;;5.17;3.03;;;11.50;99.90;;;10.54;100.00;101093.13;4950103;29;20511;-69
2023/01/06 03:26:51;;;;;;;4.32;3.03;;;11.80;99.90;;;10.44;100.00;101099.38;4950578;28;20298;-69
2023/01/06 03:29:21;;;;;;;6.28;4.15;;;11.40;99.90;;;10.41;100.00;101088.88;4950593;28;20051;-69
2023/01/06 03:32:16;;;;;;;5.38;3.35;;;11.40;99.90;;;10.45;100.00;101101.09;4969423;28;20137;-69
2023/01/06 03:34:55;;;;;;;4.00;3.25;;;11.30;99.90;;;10.41;100.00;101091.53;4968773;28;20109;-69
2023/01/06 03:37:50;;;;;;;5.28;3.80;;;11.40;99.90;;;10.38;100.00;101083.63;4969215;28;20050;-69
2023/01/06 03:40:29;;;;;;;3.63;3.00;;;11.30;99.90;;;10.33;100.00;101086.31;4969245;28;20050;-69
2023/01/06 03:43:32;;;;;;;6.00;3.28;;;11.30;99.90;;;10.30;100.00;101074.09;4989475;28;20129;-69
2023/01/06 03:46:31;;;;;;;3.58;3.22;;;11.20;99.90;;;10.20;100.00;101083.81;4988970;28;20161;-69
2023/01/06 03:49:27;;;;;;;4.97;3.28;;;11.20;99.90;;;10.15;100.00;101075.13;4965167;28;20046;-69
2023/01/06 03:52:09;;;;;;;4.82;3.03;;;11.20;99.90;;;10.14;100.00;101076.00;4973651;28;20050;-69
2023/01/06 03:54:53;;;;;;;3.42;2.67;;;11.10;99.90;;;10.20;100.00;101085.59;4956926;28;20054;-69
2023/01/06 03:57:30;;;;;;;3.53;2.70;;;11.10;99.90;;;10.21;100.00;101076.81;4988080;28;20098;-69
2023/01/06 04:00:28;;;;;;;3.78;2.95;;;11.10;99.90;;;10.15;100.00;101075.13;4982657;28;20058;-69
2023/01/06 04:03:01;;;;;;;6.60;3.72;;;11.10;99.90;;;10.14;100.00;101080.38;4965676;28;20522;-70
2023/01/06 04:05:28;;;;;;;3.38;3.08;;;11.10;99.90;;;10.07;100.00;101077.84;4970436;28;20101;-69
2023/01/06 04:08:03;;;;;;;2.95;2.53;;;11.30;99.90;;;10.07;100.00;101082.22;4954522;28;20101;-69
2023/01/06 04:10:31;;;;;;;3.20;2.88;;;11.00;99.90;;;10.17;100.00;101083.84;4985126;28;20438;-69
2023/01/06 04:12:59;;;;;;;3.80;3.00;;;11.10;99.90;;;10.17;100.00;101081.22;4973312;28;20049;-70
2023/01/06 04:15:31;;;;;;;4.13;3.15;;;11.10;99.90;;;10.21;100.00;101075.03;4988051;28;20061;-69
2023/01/06 04:18:01;;;;;;;4.90;2.60;;;11.20;99.90;;;10.26;100.00;101075.00;4972490;28;20054;-69
2023/01/06 04:20:31;;;;;;;4.00;2.80;;;11.10;99.90;;;10.25;100.00;101072.41;4988672;28;20058;-69
2023/01/06 04:23:05;;;;;;;4.38;2.90;;;11.20;99.90;;;10.24;100.00;101061.00;4965112;28;20047;-69
2023/01/06 04:25:36;;;;;;;3.70;3.17;;;11.20;99.90;;;10.23;100.00;101071.56;4938444;28;20054;-69
2023/01/06 04:28:14;;;;;;;4.85;2.40;;;11.20;99.90;;;10.24;100.00;101063.63;4954609;28;20053;-69
2023/01/06 04:30:42;;;;;;;2.47;2.22;;;11.10;99.90;;;10.25;100.00;101060.09;4952454;28;20046;-69
2023/01/06 04:33:10;;;;;;;2.83;2.40;;;11.20;99.90;;;10.29;100.00;101055.69;4984432;28;20046;-70
2023/01/06 04:35:39;;;;;;;3.22;2.53;;;11.20;99.90;;;10.28;100.00;101046.06;4968816;28;20051;-70
2023/01/06 04:38:06;;;;;;;4.35;3.40;;;11.20;99.90;;;10.30;100.00;101042.53;4968339;28;20049;-70
2023/01/06 04:40:33;;;;;;;3.83;3.10;;;11.20;99.90;;;10.29;100.00;101042.53;4968138;28;20141;-70
2023/01/06 04:43:03;;;;;;;5.60;3.97;;;12.10;99.90;;;10.29;100.00;101038.13;4972932;28;20045;-69
2023/01/06 04:45:31;;;;;;;5.68;2.90;;;11.20;99.90;;;10.31;100.00;101036.38;4989081;28;20427;-70
2023/01/06 04:47:58;;;;;;;3.67;3.10;;;11.20;99.90;;;10.26;100.00;101027.66;4987713;28;20054;-70
2023/01/06 04:50:25;;;;;;;5.13;2.72;;;11.20;99.90;;;10.31;100.00;101046.00;4972113;28;20050;-70
2023/01/06 04:52:53;;;;;;;3.67;2.70;;;12.40;99.90;;;10.28;100.00;101038.16;4987470;28;20054;-69
2023/01/06 04:55:20;;;;;;;3.08;2.70;;;11.40;99.90;;;10.29;100.00;101032.88;4972362;28;20050;-70
2023/01/06 04:57:47;;;;;;;2.72;2.45;;;11.20;99.90;;;10.30;100.00;101034.63;4992908;28;20046;-69
2023/01/06 05:00:15;;;;;;;2.63;2.17;;;11.20;99.90;;;10.34;100.00;101023.19;4964133;28;20107;-70
2023/01/06 05:02:42;;;;;;;7.15;2.42;;;11.20;99.90;;;10.31;100.00;101023.22;4952371;29;20071;-69
2023/01/06 05:05:10;;;;;;;3.03;2.72;;;11.20;99.90;;;10.32;100.00;101022.34;4937305;29;20420;-69
2023/01/06 05:07:37;;;;;;;2.45;2.25;;;11.20;99.90;;;10.36;100.00;101028.41;4954333;28;20464;-69
2023/01/06 05:10:07;;;;;;;3.75;2.75;;;11.20;99.90;;;10.36;100.00;101024.03;4954242;29;20046;-68
2023/01/06 05:12:35;;;;;;;2.90;2.20;;;11.30;99.90;;;10.36;100.00;101031.03;4955462;28;20649;-69
2023/01/06 05:15:03;;;;;;;2.83;2.10;;;11.40;99.90;;;10.39;100.00;101030.13;4955701;28;20578;-69
2023/01/06 05:17:30;;;;;;;2.50;2.30;;;11.30;99.90;;;10.35;100.00;101038.06;4972096;28;20049;-69
2023/01/06 05:19:57;;;;;;;3.20;2.40;;;11.30;99.90;;;10.41;100.00;101031.00;4973233;28;20113;-69
2023/01/06 05:22:26;;;;;;;3.75;2.58;;;11.30;99.90;;;10.45;100.00;101027.44;4955795;28;20474;-69
2023/01/06 05:24:53;;;;;;;4.55;3.40;;;11.60;99.90;;;10.40;100.00;101019.59;4971760;28;20046;-69
2023/01/06 05:27:20;;;;;;;3.10;2.80;;;11.40;99.90;;;10.41;100.00;101023.13;4972044;28;20061;-69
2023/01/06 05:29:47;;;;;;;7.30;3.25;;;11.30;99.90;;;10.45;100.00;101030.06;4940537;28;20582;-69
2023/01/06 05:32:14;;;;;;;2.70;2.50;;;11.30;99.90;;;10.45;100.00;101025.69;4973469;28;20081;-69
2023/01/06 05:34:41;;;;;;;2.83;2.40;;;11.40;99.90;;;10.45;100.00;101017.81;4971989;28;20169;-69
2023/01/06 05:37:09;;;;;;;3.80;3.13;;;11.40;99.90;;;10.41;100.00;101025.75;4987805;28;20039;-69
2023/01/06 05:39:36;;;;;;;3.97;3.05;;;11.40;99.90;;;10.41;100.00;101024.00;4971493;28;20066;-68
2023/01/06 05:42:03;;;;;;;3.58;2.97;;;11.50;99.90;;;10.45;100.00;101032.72;4937787;28;20055;-69
2023/01/06 05:44:30;;;;;;;2.55;2.35;;;11.30;99.90;;;10.50;100.00;101033.53;4989473;28;20129;-68
2023/01/06 05:46:57;;;;;;;3.08;2.83;;;11.30;99.90;;;10.46;100.00;101048.47;4990887;28;20042;-69
2023/01/06 05:49:25;;;;;;;3.50;3.20;;;11.40;99.90;;;10.39;100.00;101052.06;4991094;28;20518;-69
2023/01/06 05:51:51;;;;;;;2.95;2.65;;;11.50;99.90;;;10.44;100.00;101062.53;4974626;28;20501;-69
2023/01/06 05:54:18;;;;;;;3.13;2.83;;;11.40;99.90;;;10.47;100.00;101060.75;5006858;28;20041;-69
2023/01/06 05:56:46;;;;;;;3.80;3.03;;;11.30;99.90;;;10.46;100.00;101063.41;4990552;28;20061;-69
2023/01/06 05:59:13;;;;;;;4.32;2.65;;;11.30;99.90;;;10.50;100.00;101058.06;4974554;28;20468;-69
2023/01/06 06:01:40;;;;;;;3.00;2.75;;;11.30;99.90;;;10.53;100.00;101067.69;4967671;28;20039;-69
2023/01/06 06:04:10;;;;;;;5.85;2.65;;;11.70;99.90;;;10.49;100.00;101060.75;4951690;29;20042;-69
2023/01/06 06:06:37;;;;;;;5.95;2.95;;;11.40;99.90;;;10.47;100.00;101062.53;4950301;28;20404;-69
2023/01/06 06:09:05;;;;;;;3.22;2.85;;;11.40;99.90;;;10.51;100.00;101061.59;4951655;28;20043;-69
2023/01/06 06:11:31;;;;;;;2.95;2.65;;;11.40;99.90;;;10.48;100.00;101062.50;4951940;29;20054;-69
2023/01/06 06:13:59;;;;;;;3.22;2.83;;;11.30;99.90;;;10.46;100.00;101061.63;4965519;28;20062;-69
2023/01/06 06:16:27;;;;;;;2.58;2.30;;;11.30;99.90;;;10.46;100.00;101056.38;4971205;28;20149;-69
2023/01/06 06:18:57;;;;;;;3.30;2.72;;;11.40;99.90;;;10.48;100.00;101062.50;4954753;28;20054;-69
2023/01/06 06:21:28;;;;;;;2.90;2.70;;;12.00;99.90;;;10.44;100.00;101058.16;4970588;28;20054;-69
2023/01/06 06:23:57;;;;;;;5.72;3.72;;;11.30;99.90;;;10.52;100.00;101065.06;4970367;28;20057;-69
2023/01/06 06:26:25;;;;;;;3.05;2.42;;;12.00;99.90;;;10.50;100.00;101062.47;4937960;28;20522;-70
2023/01/06 06:28:52;;;;;;;4.47;2.90;;;11.30;99.90;;;10.47;100.00;101071.28;4966607;28;20050;-68
2023/01/06 06:31:26;;;;;;;2.95;2.50;;;10.40;99.90;;;10.49;100.00;101072.13;4969414;28;20046;-69
2023/01/06 06:33:57;;;;;;;3.33;2.60;;;11.40;99.90;;;10.52;100.00;101067.72;4970511;28;20047;-69
2023/01/06 06:36:25;;;;;;;3.63;3.15;;;11.40;99.90;;;10.44;100.00;101062.53;4971844;28;20054;-70
2023/01/06 06:38:54;;;;;;;3.97;3.60;;;11.30;99.90;;;10.50;100.00;101060.69;4954735;28;20515;-69
2023/01/06 06:41:23;;;;;;;2.97;2.67;;;11.70;99.90;;;10.46;100.00;101064.28;4970446;28;20038;-69
2023/01/06 06:43:51;;;;;;;3.40;2.63;;;11.30;99.90;;;10.42;100.00;101065.22;4970595;28;20070;-69
2023/01/06 06:46:19;;;;;;;3.28;2.63;;;11.30;99.90;;;10.48;100.00;101066.91;4970582;28;20047;-70
2023/01/06 06:48:48;;;;;;;2.90;2.67;;;11.30;99.90;;;10.51;100.00;101069.47;4970501;28;20104;-69
2023/01/06 06:51:19;;;;;;;3.42;2.85;;;11.30;99.90;;;10.49;100.00;101072.13;4970998;28;20137;-69
2023/01/06 06:53:47;;;;;;;5.22;2.78;;;11.40;99.90;;;10.50;100.00;101073.00;4970478;28;20059;-69
2023/01/06 06:56:17;;;;;;;3.67;2.95;;;11.40;99.90;;;10.51;100.00;101077.38;4969719;28;20613;-69
2023/01/06 06:58:45;;;;;;;3.05;2.75;;;11.40;99.90;;;10.48;100.00;101090.56;4969905;28;20050;-69
2023/01/06 07:01:15;;;;;;;3.17;2.88;;;11.40;99.90;;;10.50;100.00;101092.28;4954026;28;20097;-69
2023/01/06 07:03:43;;;;;;;4.10;3.25;;;11.30;99.90;;;10.48;100.00;101101.97;4954023;28;20487;-69
2023/01/06 07:06:19;;;;;;;3.20;2.80;;;12.00;99.90;;;10.47;100.00;101104.63;4969622;28;20054;-70
2023/01/06 07:08:48;;;;;;;4.93;2.40;;;11.30;99.90;;;10.45;100.00;101114.25;4985984;28;20507;-69
2023/01/06 07:11:15;;;;;;;4.10;3.00;;;11.30;99.90;;;10.44;100.00;101108.16;4969795;28;20046;-69
2023/01/06 07:13:42;;;;;;;3.17;2.88;;;11.20;99.90;;;10.46;100.00;101109.00;4953979;28;20508;-69
2023/01/06 07:16:10;;;;;;;3.22;2.30;;;11.30;99.90;;;10.42;100.00;101112.56;4970070;28;20097;-69
2023/01/06 07:18:38;;;;;;;4.35;2.45;;;11.30;99.90;;;10.42;100.00;101096.78;4969603;28;20051;-69
2023/01/06 07:21:05;;;;;;;4.35;2.22;;;11.70;99.90;;;10.26;100.00;101113.59;4953586;28;20125;-70
2023/01/06 07:23:32;;;;;;;2.38;2.17;;;11.20;99.90;;;10.16;100.00;101104.94;4953399;28;20471;-69
2023/01/06 07:26:01;;;;;;;5.28;3.50;;;11.10;99.90;;;10.23;100.00;101117.13;4970743;28;20507;-69
2023/01/06 07:28:30;;;;;;;4.00;3.17;;;11.10;99.90;;;10.25;100.00;101117.97;4937879;28;20050;-70
2023/01/06 07:30:57;;;;;;;7.35;4.13;;;11.10;99.90;;;10.21;100.00;101113.63;4966370;28;20043;-69
2023/01/06 07:33:26;;;;;;;5.35;3.45;;;11.10;99.90;;;10.27;100.00;101120.59;4949897;28;20122;-69
2023/01/06 07:35:55;;;;;;;4.18;3.30;;;11.40;99.90;;;10.27;100.00;101112.69;4943994;28;20415;-69
2023/01/06 07:38:23;;;;;;;2.60;2.40;;;11.10;99.90;;;10.27;100.00;101116.19;4953673;28;20544;-69
2023/01/06 07:40:50;;;;;;;3.72;3.33;;;11.10;99.90;;;10.33;100.00;101117.88;4969306;28;20126;-69
2023/01/06 07:43:18;;;;;;;3.40;2.85;;;11.10;99.90;;;10.35;100.00;101116.09;4953120;28;20055;-69
2023/01/06 07:45:46;;;;;;;4.65;4.03;;;11.10;99.90;;;10.34;100.00;101127.50;4969140;28;20133;-70
2023/01/06 07:48:14;;;;;;;3.10;2.70;;;11.20;99.90;;;10.37;100.00;101130.09;4969111;28;20049;-69
2023/01/06 07:50:41;;;;;;;5.40;3.30;;;11.20;99.90;;;10.32;100.00;101122.28;4968929;28;20097;-70
2023/01/06 07:53:09;;;;;;;6.78;5.53;;;12.50;99.90;;;10.34;100.00;101122.25;4968912;28;20101;-68
2023/01/06 07:55:36;;;;;;;4.90;4.40;;;11.20;99.90;;;10.38;100.00;101123.09;4969364;28;20054;-69
2023/01/06 07:58:06;;;;;;;4.40;3.45;;;11.20;99.90;;;10.40;100.00;101122.19;4969612;28;20156;-69
2023/01/06 08:00:34;;;;;;;2.47;2.03;;;11.20;99.90;;;10.41;100.00;101125.72;4965738;28;20134;-69
2023/01/06 08:03:06;;;;;;;3.28;1.92;;;11.20;99.90;;;10.45;100.00;101128.31;4933861;29;20460;-69
2023/01/06 08:05:40;;;;;;;4.07;2.70;;;11.20;99.90;;;10.44;100.00;101131.81;4934210;29;20051;-69
2023/01/06 08:08:09;;;;;;;7.72;3.78;;;11.40;99.90;;;10.50;100.00;101131.75;4949812;29;20139;-69
2023/01/06 08:10:41;;;;;;;14.43;6.93;;;11.30;99.90;;;10.53;100.00;101137.84;4934123;29;20807;-69
2023/01/06 08:13:09;;;;;;;10.25;5.65;;;11.50;99.90;;;10.52;100.00;101134.38;4956972;28;20683;-70
2023/01/06 08:15:37;;;;;;;14.93;7.45;;;11.50;99.90;;;10.49;100.00;101119.47;4952542;28;20121;-69
2023/01/06 08:18:05;;;;;;;14.02;6.40;;;11.50;99.90;;;10.54;100.00;101129.97;4952657;28;20058;-69
2023/01/06 08:20:33;;;;;;;10.05;5.32;;;11.60;99.90;;;10.49;100.00;101135.28;4968782;28;20038;-70
2023/01/06 08:23:01;;;;;;;5.28;2.80;;;11.40;99.90;;;10.54;100.00;101134.38;4952533;28;20138;-69
2023/01/06 08:25:28;;;;;;;2.92;1.80;;;11.40;99.90;;;10.57;100.00;101131.69;4969932;28;20130;-69
2023/01/06 08:27:58;;;;;;;1.75;1.50;;;11.40;99.90;;;10.62;100.00;101143.03;4952579;28;20054;-69
2023/01/06 08:30:26;;;;;;;3.42;1.98;;;11.40;99.90;;;10.67;100.00;101137.72;4951796;28;20054;-69
2023/01/06 08:32:58;;;;;;;1.52;1.42;;;11.40;99.90;;;10.69;100.00;101131.53;4984501;28;20078;-68
2023/01/06 08:35:26;;;;;;;1.52;1.42;;;11.70;99.90;;;10.70;100.00;101133.28;4969748;28;20055;-69
2023/01/06 08:37:53;;;;;;;2.85;1.77;;;11.50;99.90;;;10.71;100.00;101137.66;4952683;28;20605;-69
2023/01/06 08:40:20;;;;;;;3.90;2.45;;;11.60;99.80;;;10.72;100.00;101142.03;4968849;28;20418;-69
2023/01/06 08:42:47;;;;;;;5.60;1.80;;;11.50;99.70;;;10.73;100.00;101135.00;4968053;28;20047;-69
2023/01/06 08:45:14;;;;;;;4.70;2.88;;;11.50;99.70;;;10.74;100.00;101135.00;4968233;28;20058;-69
2023/01/06 08:47:41;;;;;;;4.97;3.33;;;11.60;99.80;;;10.73;100.00;101135.88;4968103;28;20054;-70
2023/01/06 08:50:08;;;;;;;3.22;1.95;;;11.60;99.60;;;10.78;100.00;101147.22;4969764;28;20071;-69
2023/01/06 08:52:35;;;;;;;3.53;2.00;;;11.60;99.40;;;10.85;100.00;101149.75;4968301;28;20430;-69
2023/01/06 08:55:03;;;;;;;2.28;1.42;;;11.70;99.50;;;10.90;100.00;101140.06;4952392;28;20042;-69
2023/01/06 08:57:30;;;;;;;2.55;1.63;;;11.70;99.30;;;10.91;100.00;101139.16;4968431;28;20047;-69
2023/01/06 08:59:57;;;;;;;4.70;2.13;;;11.70;99.20;;;10.95;100.00;101143.50;4952964;28;20053;-69
2023/01/06 09:02:26;;;;;;;2.80;2.40;;;11.80;99.10;;;10.95;100.00;101138.22;4968060;28;20583;-69
2023/01/06 09:04:53;;;;;;;2.75;2.08;;;11.90;99.40;;;10.92;100.00;101144.38;4969449;28;20352;-69
2023/01/06 09:07:20;;;;;;;2.88;1.63;;;11.70;99.10;;;10.94;100.00;101136.47;4969522;28;20053;-69
2023/01/06 09:09:47;;;;;;;1.40;1.30;;;11.80;99.10;;;10.96;100.00;101133.84;4968383;28;20422;-69
2023/01/06 09:12:14;;;;;;;1.95;1.33;;;11.80;98.80;;;10.99;100.00;101129.38;4968184;28;20043;-69
2023/01/06 09:14:41;;;;;;;1.20;1.10;;;11.80;98.90;;;10.97;100.00;101127.69;4986106;28;20046;-69
2023/01/06 09:17:08;;;;;;;3.75;1.70;;;11.80;98.70;;;10.99;100.00;101134.66;4971403;28;20073;-69
2023/01/06 09:19:35;;;;;;;2.20;1.70;;;11.90;98.60;;;10.97;100.00;101127.69;4988602;28;20061;-69
2023/01/06 09:22:03;;;;;;;7.43;3.65;;;12.50;98.90;;;10.98;100.00;101126.78;4971221;28;20050;-69
2023/01/06 09:24:30;;;;;;;3.47;2.88;;;11.80;98.90;;;11.01;100.00;101118.84;4987138;28;20038;-70
2023/01/06 09:26:57;;;;;;;3.75;1.73;;;11.80;98.80;;;11.01;100.00;101119.72;4987447;28;20047;-69
2023/01/06 09:29:24;;;;;;;2.08;1.65;;;11.80;98.70;;;11.09;100.00;101129.28;4969822;28;20104;-69
2023/01/06 09:31:51;;;;;;;2.60;2.20;;;11.90;98.80;;;11.15;100.00;101116.88;4967709;28;20047;-70
2023/01/06 09:34:18;;;;;;;2.05;1.80;;;11.90;98.60;;;11.20;100.00;101120.31;4967584;28;20047;-70
2023/01/06 09:36:45;;;;;;;1.88;1.30;;;12.00;98.30;;;11.26;100.00;101122.00;4983578;28;20035;-69
2023/01/06 09:39:13;;;;;;;2.70;2.15;;;12.10;98.30;;;11.33;100.00;101118.38;4968317;28;20518;-70
2023/01/06 09:42:38;;;;;;;1.92;1.20;;;12.10;98.50;;;11.41;100.00;101131.44;4969696;28;20077;-70
2023/01/06 09:45:23;;;;;;;2.30;1.30;;;12.20;98.20;;;11.47;100.00;101126.06;4951736;28;20069;-69
2023/01/06 09:47:59;;;;;;;3.55;2.58;;;12.20;98.30;;;11.57;100.00;101120.66;4968110;28;20047;-70
2023/01/06 09:50:49;;;;;;;6.03;4.63;;;12.40;98.30;;;11.63;100.00;101124.06;4953434;29;20050;-70
2023/01/06 09:53:30;;;;;;;8.17;6.13;;;12.40;97.90;;;11.55;100.00;101122.44;4952055;29;20053;-70
2023/01/06 09:56:02;;;;;;;3.75;3.17;;;12.40;97.80;;;11.55;100.00;101114.53;4968025;28;20062;-70
2023/01/06 09:58:44;;;;;;;1.55;1.40;;;12.40;98.00;;;11.64;100.00;101127.56;4968222;28;20706;-70
2023/01/06 10:01:16;;;;;;;3.00;1.90;;;12.70;97.90;;;11.73;100.00;101135.34;4951756;29;20511;-70
2023/01/06 10:03:47;;;;;;;3.70;2.53;;;12.50;98.00;;;11.66;100.00;101136.31;4967765;28;20062;-69
2023/01/06 10:06:58;;;;;;;11.63;6.22;;;12.50;97.70;;;11.59;100.00;101138.19;4967632;28;20062;-70
2023/01/06 10:10:00;;;;;;;4.32;2.90;;;12.50;97.80;;;11.57;100.00;101131.22;4953327;28;20058;-69
2023/01/06 10:12:53;;;;;;;5.32;3.30;;;12.40;97.60;;;11.39;100.00;101125.31;4969459;28;20055;-69
2023/01/06 10:15:37;;;;;;;4.05;3.00;;;12.30;97.60;;;11.45;100.00;101130.50;4976603;28;20097;-70
2023/01/06 10:18:47;;;;;;;5.38;2.25;;;12.30;97.80;;;11.43;100.00;101127.03;4954602;28;20703;-70
2023/01/06 10:21:44;;;;;;;2.05;1.75;;;12.30;97.60;;;11.53;100.00;101116.31;4957019;28;20125;-70
2023/01/06 10:24:40;;;;;;;2.58;1.45;;;12.30;97.60;;;11.65;100.00;101115.28;4985800;28;20046;-70
2023/01/06 10:27:45;;;;;;;4.30;2.90;;;12.40;97.50;;;11.82;100.00;101128.16;4985826;28;20043;-70
2023/01/06 10:30:32;;;;;;;6.10;3.40;;;12.50;97.60;;;11.80;100.00;101127.31;4972524;28;20063;-70
2023/01/06 10:33:10;;;;;;;4.80;3.08;;;12.60;97.30;;;11.79;100.00;101129.09;4970424;28;20047;-69
2023/01/06 10:35:37;;;;;;;2.97;1.83;;;12.60;97.20;;;11.73;100.00;101122.16;4970530;28;20054;-69